createdAt,value
2017-06-17T00:00:48.518Z,1021.5
2017-06-17T00:01:47.755Z,1021.5
2017-06-17T00:02:46.552Z,1021.5
2017-06-17T00:03:46.276Z,1021.5
2017-06-17T00:04:45.083Z,1021.5
2017-06-17T00:05:44.814Z,1021.5
2017-06-17T00:06:44.051Z,1021.5
2017-06-17T00:07:43.287Z,1021.5
2017-06-17T00:08:42.586Z,1021.5
2017-06-17T00:09:41.814Z,1021.5
2017-06-17T00:10:41.052Z,1021.5
2017-06-17T00:11:40.279Z,1021.5
2017-06-17T00:12:39.515Z,1021.5
2017-06-17T00:13:38.741Z,1021.5
2017-06-17T00:14:37.854Z,1021.5
2017-06-17T00:15:37.115Z,1021.5
2017-06-17T00:16:36.347Z,1021.5
2017-06-17T00:17:35.847Z,1021.5
2017-06-17T00:18:34.961Z,1021.5
2017-06-17T00:21:32.468Z,1021.5
2017-06-17T00:22:32.091Z,1021.5
2017-06-17T00:23:31.328Z,1021.5
2017-06-17T00:24:30.564Z,1021.5
2017-06-17T00:25:29.796Z,1021.6
2017-06-17T00:26:29.025Z,1021.5
2017-06-17T00:27:28.138Z,1021.5
2017-06-17T00:28:27.450Z,1021.6
2017-06-17T00:29:26.684Z,1021.6
2017-06-17T00:30:25.913Z,1021.5
2017-06-17T00:31:25.414Z,1021.5
2017-06-17T00:32:24.527Z,1021.5
2017-06-17T00:33:23.763Z,1021.5
2017-06-17T00:34:22.991Z,1021.5
2017-06-17T00:35:22.374Z,1021.6
2017-06-17T00:36:21.490Z,1021.5
2017-06-17T00:37:20.799Z,1021.6
2017-06-17T00:38:20.026Z,1021.6
2017-06-17T00:40:18.647Z,1021.5
2017-06-17T00:41:17.891Z,1021.5
2017-06-17T00:42:17.120Z,1021.6
2017-06-17T00:43:16.359Z,1021.6
2017-06-17T00:44:15.472Z,1021.6
2017-06-17T00:45:14.579Z,1021.6
2017-06-17T00:46:13.813Z,1021.5
2017-06-17T00:47:13.046Z,1021.6
2017-06-17T00:48:12.780Z,1021.6
2017-06-17T00:49:11.892Z,1021.6
2017-06-17T00:50:10.888Z,1021.6
2017-06-17T00:51:10.512Z,1021.6
2017-06-17T00:52:09.627Z,1021.6
2017-06-17T00:53:08.744Z,1021.6
2017-06-17T00:54:07.969Z,1021.6
2017-06-17T00:55:07.083Z,1021.7
2017-06-17T00:56:06.585Z,1021.6
2017-06-17T00:57:05.703Z,1021.7
2017-06-17T00:58:04.889Z,1021.7
2017-06-17T00:59:04.499Z,1021.7
2017-06-17T01:00:03.729Z,1021.7
2017-06-17T01:01:02.843Z,1021.7
2017-06-17T01:02:02.067Z,1021.7
2017-06-17T01:03:01.179Z,1021.7
2017-06-17T01:04:00.359Z,1021.7
2017-06-17T01:04:59.592Z,1021.7
2017-06-17T01:05:58.816Z,1021.7
2017-06-17T01:06:58.044Z,1021.8
2017-06-17T01:07:57.660Z,1021.7
2017-06-17T01:08:56.780Z,1021.8
2017-06-17T01:09:55.963Z,1021.8
2017-06-17T01:10:55.196Z,1021.8
2017-06-17T01:11:54.500Z,1021.7
2017-06-17T01:12:53.887Z,1021.8
2017-06-17T01:13:53.114Z,1021.7
2017-06-17T01:15:51.732Z,1021.8
2017-06-17T01:16:50.948Z,1021.8
2017-06-17T01:17:50.174Z,1021.8
2017-06-17T01:18:49.410Z,1021.8
2017-06-17T01:19:48.527Z,1021.8
2017-06-17T01:20:47.839Z,1021.7
2017-06-17T01:21:47.073Z,1021.8
2017-06-17T01:22:46.304Z,1021.8
2017-06-17T01:23:45.541Z,1021.8
2017-06-17T01:24:44.661Z,1021.8
2017-06-17T01:25:43.893Z,1021.8
2017-06-17T01:26:43.128Z,1021.8
2017-06-17T01:27:42.356Z,1021.8
2017-06-17T01:28:41.589Z,1021.8
2017-06-17T01:29:40.887Z,1021.8
2017-06-17T01:30:40.119Z,1021.8
2017-06-17T01:31:10.655Z,1021.8
2017-06-17T01:31:41.203Z,1021.8
2017-06-17T01:32:38.838Z,1021.8
2017-06-17T01:33:38.066Z,1021.7
2017-06-17T01:34:37.181Z,1021.7
2017-06-17T01:35:36.182Z,1021.8
2017-06-17T01:36:35.430Z,1021.8
2017-06-17T01:37:35.057Z,1021.7
2017-06-17T01:38:34.282Z,1021.7
2017-06-17T01:39:33.513Z,1021.7
2017-06-17T01:41:31.633Z,1021.7
2017-06-17T01:42:31.247Z,1021.7
2017-06-17T01:43:30.366Z,1021.7
2017-06-17T01:44:29.596Z,1021.7
2017-06-17T01:45:28.924Z,1021.7
2017-06-17T01:46:28.226Z,1021.7
2017-06-17T01:47:27.474Z,1021.7
2017-06-17T01:48:26.697Z,1021.7
2017-06-17T01:49:25.837Z,1021.7
2017-06-17T01:50:24.950Z,1021.7
2017-06-17T01:51:24.182Z,1021.7
2017-06-17T01:52:23.431Z,1021.7
2017-06-17T01:53:22.931Z,1021.7
2017-06-17T01:54:21.926Z,1021.7
2017-06-17T01:55:21.039Z,1021.6
2017-06-17T01:56:20.267Z,1021.7
2017-06-17T01:58:18.773Z,1021.6
2017-06-17T01:59:18.363Z,1021.6
2017-06-17T02:00:17.612Z,1021.7
2017-06-17T02:01:16.842Z,1021.6
2017-06-17T02:02:15.951Z,1021.6
2017-06-17T02:03:15.179Z,1021.6
2017-06-17T02:04:14.408Z,1021.6
2017-06-17T02:05:13.644Z,1021.6
2017-06-17T02:06:12.872Z,1021.6
2017-06-17T02:07:11.988Z,1021.6
2017-06-17T02:08:11.230Z,1021.6
2017-06-17T02:10:09.729Z,1021.6
2017-06-17T02:11:08.840Z,1021.7
2017-06-17T02:12:08.343Z,1021.6
2017-06-17T02:13:07.575Z,1021.6
2017-06-17T02:14:06.808Z,1021.6
2017-06-17T02:15:06.036Z,1021.6
2017-06-17T02:17:04.539Z,1021.7
2017-06-17T02:18:03.728Z,1021.7
2017-06-17T02:19:02.993Z,1021.7
2017-06-17T02:20:02.225Z,1021.8
2017-06-17T02:21:01.525Z,1021.7
2017-06-17T02:22:00.632Z,1021.8
2017-06-17T02:22:59.705Z,1021.8
2017-06-17T02:23:58.932Z,1021.8
2017-06-17T02:25:57.558Z,1021.8
2017-06-17T02:26:56.596Z,1021.8
2017-06-17T02:27:56.089Z,1021.8
2017-06-17T02:28:55.209Z,1021.8
2017-06-17T02:29:54.513Z,1021.8
2017-06-17T02:30:53.740Z,1021.8
2017-06-17T02:31:52.970Z,1021.8
2017-06-17T02:32:52.210Z,1021.8
2017-06-17T02:33:51.442Z,1021.8
2017-06-17T02:34:50.566Z,1021.8
2017-06-17T02:36:49.075Z,1021.8
2017-06-17T02:37:48.308Z,1021.8
2017-06-17T02:38:47.808Z,1021.9
2017-06-17T02:39:47.038Z,1021.8
2017-06-17T02:40:46.266Z,1021.8
2017-06-17T02:41:45.494Z,1021.8
2017-06-17T02:42:44.726Z,1021.9
2017-06-17T02:44:42.835Z,1021.9
2017-06-17T02:45:42.054Z,1021.9
2017-06-17T02:47:40.489Z,1021.8
2017-06-17T02:48:39.784Z,1021.8
2017-06-17T02:49:39.004Z,1021.9
2017-06-17T02:50:38.292Z,1021.9
2017-06-17T02:51:37.529Z,1021.8
2017-06-17T02:52:36.749Z,1021.9
2017-06-17T02:53:35.967Z,1021.9
2017-06-17T02:54:35.181Z,1021.9
2017-06-17T02:55:34.288Z,1021.9
2017-06-17T02:56:33.540Z,1021.9
2017-06-17T02:57:32.760Z,1021.9
2017-06-17T02:58:32.077Z,1021.9
2017-06-17T02:59:31.298Z,1021.9
2017-06-17T03:00:30.522Z,1022
2017-06-17T03:01:30.156Z,1022
2017-06-17T03:02:29.396Z,1022
2017-06-17T03:03:28.509Z,1022
2017-06-17T03:04:27.745Z,1022
2017-06-17T03:05:26.975Z,1021.9
2017-06-17T03:06:26.081Z,1022
2017-06-17T03:08:24.701Z,1022
2017-06-17T03:09:23.922Z,1022
2017-06-17T03:10:23.138Z,1022
2017-06-17T03:11:22.124Z,1022
2017-06-17T03:12:21.619Z,1022
2017-06-17T03:13:20.839Z,1022
2017-06-17T03:14:20.067Z,1022.1
2017-06-17T03:15:19.167Z,1022.1
2017-06-17T03:16:18.275Z,1022.1
2017-06-17T03:18:16.739Z,1022.2
2017-06-17T03:19:16.036Z,1022.2
2017-06-17T03:20:15.140Z,1022.2
2017-06-17T03:21:14.370Z,1022.2
2017-06-17T03:22:13.684Z,1022.2
2017-06-17T03:24:12.176Z,1022.2
2017-06-17T03:25:11.420Z,1022.2
2017-06-17T03:26:10.642Z,1022.3
2017-06-17T03:27:09.895Z,1022.3
2017-06-17T03:28:09.126Z,1022.2
2017-06-17T03:29:08.229Z,1022.2
2017-06-17T03:30:07.457Z,1022.2
2017-06-17T03:31:06.678Z,1022.2
2017-06-17T03:32:05.909Z,1022.2
2017-06-17T03:33:05.077Z,1022.2
2017-06-17T03:34:04.684Z,1022.2
2017-06-17T03:35:03.903Z,1022.2
2017-06-17T03:36:03.125Z,1022.2
2017-06-17T03:37:02.354Z,1022.2
2017-06-17T03:38:01.452Z,1022.2
2017-06-17T03:39:00.677Z,1022.2
2017-06-17T03:39:59.897Z,1022.1
2017-06-17T03:40:58.996Z,1022.1
2017-06-17T03:41:58.216Z,1022.2
2017-06-17T03:42:57.513Z,1022.2
2017-06-17T03:43:56.733Z,1022.1
2017-06-17T03:44:55.957Z,1022.2
2017-06-17T03:45:55.177Z,1022.2
2017-06-17T03:46:54.280Z,1022.2
2017-06-17T03:47:53.501Z,1022.3
2017-06-17T03:48:53.116Z,1022.2
2017-06-17T03:49:52.227Z,1022.2
2017-06-17T03:50:51.209Z,1022.2
2017-06-17T03:51:50.812Z,1022.2
2017-06-17T03:52:49.798Z,1022.2
2017-06-17T03:53:49.020Z,1022.2
2017-06-17T03:54:48.245Z,1022.2
2017-06-17T03:55:47.355Z,1022.2
2017-06-17T03:56:46.574Z,1022.2
2017-06-17T03:57:45.799Z,1022.2
2017-06-17T03:59:44.289Z,1022.2
2017-06-17T04:00:43.517Z,1022.2
2017-06-17T04:01:42.733Z,1022.2
2017-06-17T04:02:41.957Z,1022.2
2017-06-17T04:03:41.180Z,1022.2
2017-06-17T04:04:40.393Z,1022.2
2017-06-17T04:05:39.613Z,1022.2
2017-06-17T04:06:38.837Z,1022.2
2017-06-17T04:07:38.057Z,1022.2
2017-06-17T04:08:37.786Z,1022.2
2017-06-17T04:09:37.005Z,1022.1
2017-06-17T04:10:36.228Z,1022.1
2017-06-17T04:11:35.449Z,1022.2
2017-06-17T04:12:34.665Z,1022.2
2017-06-17T04:13:33.458Z,1022.2
2017-06-17T04:14:32.831Z,1022.1
2017-06-17T04:15:32.051Z,1022.2
2017-06-17T04:16:31.272Z,1022.2
2017-06-17T04:17:30.492Z,1022.2
2017-06-17T04:19:29.104Z,1022.2
2017-06-17T04:20:28.208Z,1022.1
2017-06-17T04:21:27.311Z,1022.3
2017-06-17T04:22:26.534Z,1022.2
2017-06-17T04:23:25.762Z,1022.2
2017-06-17T04:24:25.367Z,1022.2
2017-06-17T04:25:24.468Z,1022.2
2017-06-17T04:26:23.452Z,1022.2
2017-06-17T04:28:22.059Z,1022.3
2017-06-17T04:29:21.171Z,1022.3
2017-06-17T04:30:20.665Z,1022.3
2017-06-17T04:31:19.954Z,1022.3
2017-06-17T04:33:18.156Z,1022.3
2017-06-17T04:34:17.376Z,1022.3
2017-06-17T04:35:16.596Z,1022.3
2017-06-17T04:36:15.815Z,1022.3
2017-06-17T04:38:14.308Z,1022.3
2017-06-17T04:39:13.528Z,1022.3
2017-06-17T04:40:12.631Z,1022.3
2017-06-17T04:41:12.238Z,1022.4
2017-06-17T04:42:11.457Z,1022.4
2017-06-17T04:43:10.682Z,1022.3
2017-06-17T04:44:09.903Z,1022.3
2017-06-17T04:45:09.006Z,1022.3
2017-06-17T04:46:08.235Z,1022.3
2017-06-17T04:47:07.348Z,1022.3
2017-06-17T04:49:05.962Z,1022.3
2017-06-17T04:50:05.060Z,1022.3
2017-06-17T04:51:04.551Z,1022.3
2017-06-17T04:52:03.655Z,1022.3
2017-06-17T04:53:02.874Z,1022.3
2017-06-17T04:54:01.978Z,1022.3
2017-06-17T05:01:55.915Z,1022.3
2017-06-17T05:05:52.685Z,1022.4
2017-06-17T05:06:51.937Z,1022.4
2017-06-17T05:07:51.169Z,1022.4
2017-06-17T05:08:50.386Z,1022.3
2017-06-17T05:09:49.626Z,1022.3
2017-06-17T05:10:48.850Z,1022.4
2017-06-17T05:11:48.071Z,1022.5
2017-06-17T05:12:47.291Z,1022.4
2017-06-17T05:13:46.580Z,1022.4
2017-06-17T05:14:45.820Z,1022.4
2017-06-17T05:16:44.427Z,1022.4
2017-06-17T05:18:43.045Z,1022.4
2017-06-17T05:19:42.329Z,1022.4
2017-06-17T05:20:41.550Z,1022.4
2017-06-17T05:21:40.768Z,1022.4
2017-06-17T05:22:39.992Z,1022.4
2017-06-17T05:23:39.292Z,1022.4
2017-06-17T05:25:37.281Z,1022.5
2017-06-17T05:26:37.005Z,1022.5
2017-06-17T05:27:36.234Z,1022.5
2017-06-17T05:28:35.453Z,1022.5
2017-06-17T05:29:34.673Z,1022.5
2017-06-17T05:30:33.896Z,1022.5
2017-06-17T05:31:32.772Z,1022.5
2017-06-17T05:32:31.993Z,1022.5
2017-06-17T05:34:30.615Z,1022.5
2017-06-17T05:35:29.843Z,1022.5
2017-06-17T05:36:28.948Z,1022.5
2017-06-17T05:37:28.167Z,1022.5
2017-06-17T05:38:27.657Z,1022.6
2017-06-17T05:39:26.877Z,1022.6
2017-06-17T05:40:25.984Z,1022.6
2017-06-17T05:42:24.598Z,1022.5
2017-06-17T05:43:23.700Z,1022.5
2017-06-17T05:46:21.462Z,1022.6
2017-06-17T05:50:18.352Z,1022.6
2017-06-17T05:51:17.636Z,1022.6
2017-06-17T05:52:16.861Z,1022.6
2017-06-17T05:54:15.474Z,1022.7
2017-06-17T05:55:14.691Z,1022.6
2017-06-17T05:56:13.984Z,1022.6
2017-06-17T05:57:13.204Z,1022.6
2017-06-17T05:58:12.426Z,1022.7
2017-06-17T05:59:11.677Z,1022.7
2017-06-17T06:00:10.661Z,1022.7
2017-06-17T06:01:09.881Z,1022.7
2017-06-17T06:02:08.992Z,1022.7
2017-06-17T06:03:08.485Z,1022.7
2017-06-17T06:04:07.714Z,1022.7
2017-06-17T06:05:06.818Z,1022.7
2017-06-17T06:07:05.524Z,1022.7
2017-06-17T06:08:04.752Z,1022.7
2017-06-17T06:10:03.241Z,1022.7
2017-06-17T06:11:02.353Z,1022.7
2017-06-17T06:12:01.577Z,1022.7
2017-06-17T06:13:00.575Z,1022.7
2017-06-17T06:13:59.796Z,1022.7
2017-06-17T06:14:30.340Z,1022.7
2017-06-17T06:15:00.874Z,1022.7
2017-06-17T06:15:58.479Z,1022.7
2017-06-17T06:16:57.763Z,1022.7
2017-06-17T06:19:55.265Z,1022.7
2017-06-17T06:20:54.489Z,1022.7
2017-06-17T06:21:53.616Z,1022.8
2017-06-17T06:22:53.227Z,1022.7
2017-06-17T06:23:52.334Z,1022.8
2017-06-17T06:24:51.554Z,1022.7
2017-06-17T06:25:50.850Z,1022.8
2017-06-17T06:26:50.074Z,1022.8
2017-06-17T06:27:49.185Z,1022.9
2017-06-17T06:28:48.401Z,1022.8
2017-06-17T06:29:47.629Z,1022.9
2017-06-17T06:30:46.861Z,1022.9
2017-06-17T06:31:46.080Z,1022.9
2017-06-17T06:32:45.578Z,1022.9
2017-06-17T06:34:43.680Z,1022.9
2017-06-17T06:35:43.404Z,1022.8
2017-06-17T06:36:42.636Z,1022.8
2017-06-17T06:37:41.856Z,1022.8
2017-06-17T06:38:41.084Z,1022.9
2017-06-17T06:39:39.885Z,1022.8
2017-06-17T06:40:39.108Z,1022.8
2017-06-17T06:41:38.831Z,1022.8
2017-06-17T06:42:37.726Z,1022.8
2017-06-17T06:43:08.259Z,1022.8
2017-06-17T06:43:38.709Z,1022.8
2017-06-17T06:44:09.124Z,1022.8
2017-06-17T06:44:39.425Z,1022.8
2017-06-17T06:45:09.959Z,1022.8
2017-06-17T06:47:33.905Z,1022.9
2017-06-17T06:48:33.134Z,1022.9
2017-06-17T06:49:32.354Z,1022.9
2017-06-17T06:50:31.573Z,1022.8
2017-06-17T06:51:30.801Z,1022.8
2017-06-17T06:52:30.066Z,1022.8
2017-06-17T06:53:29.284Z,1022.9
2017-06-17T06:54:28.509Z,1022.9
2017-06-17T06:55:27.728Z,1022.9
2017-06-17T06:56:27.332Z,1022.9
2017-06-17T06:57:26.438Z,1022.8
2017-06-17T06:58:25.538Z,1022.9
2017-06-17T06:59:24.758Z,1022.9
2017-06-17T07:00:23.977Z,1022.8
2017-06-17T07:01:23.201Z,1022.8
2017-06-17T07:02:22.830Z,1022.8
2017-06-17T07:03:21.557Z,1022.8
2017-06-17T07:04:21.279Z,1022.8
2017-06-17T07:05:20.384Z,1022.9
2017-06-17T07:06:19.613Z,1022.8
2017-06-17T07:07:18.724Z,1022.8
2017-06-17T07:08:17.834Z,1022.7
2017-06-17T07:09:17.057Z,1022.7
2017-06-17T07:10:16.277Z,1022.7
2017-06-17T07:11:15.880Z,1022.7
2017-06-17T07:12:15.158Z,1022.7
2017-06-17T07:13:14.263Z,1022.7
2017-06-17T07:15:12.882Z,1022.6
2017-06-17T07:17:10.990Z,1022.6
2017-06-17T07:18:10.592Z,1022.6
2017-06-17T07:20:08.698Z,1022.7
2017-06-17T07:21:07.874Z,1022.7
2017-06-17T07:23:06.482Z,1022.7
2017-06-17T07:24:05.589Z,1022.7
2017-06-17T07:25:04.817Z,1022.7
2017-06-17T07:26:04.425Z,1022.7
2017-06-17T07:27:03.647Z,1022.7
2017-06-17T07:28:02.751Z,1022.7
2017-06-17T07:29:01.853Z,1022.7
2017-06-17T07:30:01.070Z,1022.7
2017-06-17T07:31:59.582Z,1022.7
2017-06-17T07:32:58.802Z,1022.7
2017-06-17T07:33:58.025Z,1022.7
2017-06-17T07:34:57.631Z,1022.8
2017-06-17T07:35:56.848Z,1022.7
2017-06-17T07:36:55.947Z,1022.8
2017-06-17T07:37:55.049Z,1022.8
2017-06-17T07:38:54.659Z,1022.8
2017-06-17T07:40:53.031Z,1022.8
2017-06-17T07:41:52.263Z,1022.9
2017-06-17T07:42:51.487Z,1022.8
2017-06-17T07:44:50.092Z,1022.9
2017-06-17T07:45:49.195Z,1022.9
2017-06-17T07:46:48.495Z,1022.9
2017-06-17T07:47:47.715Z,1022.9
2017-06-17T07:48:46.935Z,1022.9
2017-06-17T07:49:46.163Z,1022.9
2017-06-17T07:50:45.382Z,1022.9
2017-06-17T07:51:44.490Z,1022.8
2017-06-17T07:52:43.593Z,1022.9
2017-06-17T07:54:42.206Z,1022.8
2017-06-17T07:55:41.687Z,1022.8
2017-06-17T07:56:40.915Z,1022.9
2017-06-17T07:57:40.134Z,1022.8
2017-06-17T07:58:39.315Z,1022.8
2017-06-17T07:59:38.610Z,1022.8
2017-06-17T08:00:37.830Z,1022.8
2017-06-17T08:01:37.051Z,1022.9
2017-06-17T08:02:36.166Z,1022.9
2017-06-17T08:03:35.385Z,1022.8
2017-06-17T08:04:34.609Z,1022.8
2017-06-17T08:05:33.854Z,1022.8
2017-06-17T08:06:33.054Z,1022.8
2017-06-17T08:07:32.656Z,1022.8
2017-06-17T08:08:31.960Z,1022.8
2017-06-17T08:09:31.176Z,1022.8
2017-06-17T08:10:30.279Z,1022.8
2017-06-17T08:11:29.498Z,1022.9
2017-06-17T08:12:28.722Z,1022.8
2017-06-17T08:13:27.954Z,1022.9
2017-06-17T08:14:27.062Z,1022.9
2017-06-17T08:16:25.666Z,1022.9
2017-06-17T08:17:24.890Z,1022.9
2017-06-17T08:18:24.109Z,1022.9
2017-06-17T08:19:23.712Z,1022.9
2017-06-17T08:20:22.876Z,1022.9
2017-06-17T08:21:22.096Z,1022.9
2017-06-17T08:22:21.319Z,1022.9
2017-06-17T08:23:20.540Z,1022.9
2017-06-17T08:24:19.659Z,1022.9
2017-06-17T08:25:18.831Z,1022.9
2017-06-17T08:26:18.565Z,1022.9
2017-06-17T08:27:17.567Z,1022.9
2017-06-17T08:28:16.787Z,1022.9
2017-06-17T08:29:16.019Z,1022.9
2017-06-17T08:30:15.124Z,1022.8
2017-06-17T08:32:13.622Z,1022.7
2017-06-17T08:33:13.003Z,1022.8
2017-06-17T08:35:11.877Z,1022.8
2017-06-17T08:37:09.979Z,1022.8
2017-06-17T08:38:09.586Z,1022.8
2017-06-17T08:39:08.693Z,1022.8
2017-06-17T08:40:07.905Z,1022.8
2017-06-17T08:41:07.121Z,1022.7
2017-06-17T08:42:06.232Z,1022.7
2017-06-17T08:43:05.914Z,1022.8
2017-06-17T08:44:05.009Z,1022.7
2017-06-17T08:45:04.389Z,1022.7
2017-06-17T08:46:03.618Z,1022.7
2017-06-17T08:47:02.845Z,1022.7
2017-06-17T08:48:01.945Z,1022.7
2017-06-17T08:49:01.233Z,1022.7
2017-06-17T08:50:00.404Z,1022.7
2017-06-17T08:50:30.941Z,1022.7
2017-06-17T08:51:01.480Z,1022.6
2017-06-17T08:51:59.206Z,1022.7
2017-06-17T08:52:58.133Z,1022.6
2017-06-17T08:53:57.856Z,1022.7
2017-06-17T08:55:56.347Z,1022.7
2017-06-17T08:56:55.443Z,1022.7
2017-06-17T08:57:54.658Z,1022.7
2017-06-17T08:58:53.760Z,1022.7
2017-06-17T08:59:53.367Z,1022.7
2017-06-17T09:00:52.746Z,1022.7
2017-06-17T09:01:51.731Z,1022.8
2017-06-17T09:02:50.959Z,1022.8
2017-06-17T09:03:50.562Z,1022.9
2017-06-17T09:04:49.782Z,1022.9
2017-06-17T09:05:49.012Z,1022.8
2017-06-17T09:06:48.301Z,1022.8
2017-06-17T09:07:47.525Z,1022.8
2017-06-17T09:08:46.745Z,1022.9
2017-06-17T09:09:45.968Z,1022.8
2017-06-17T09:10:45.456Z,1022.8
2017-06-17T09:11:44.690Z,1022.8
2017-06-17T09:12:15.221Z,1022.8
2017-06-17T09:13:42.904Z,1022.8
2017-06-17T09:14:42.125Z,1022.9
2017-06-17T09:15:41.731Z,1022.9
2017-06-17T09:16:40.955Z,1022.9
2017-06-17T09:17:40.171Z,1022.9
2017-06-17T09:18:39.391Z,1022.9
2017-06-17T09:19:38.611Z,1022.9
2017-06-17T09:20:37.918Z,1022.9
2017-06-17T09:21:37.521Z,1022.8
2017-06-17T09:22:36.630Z,1022.9
2017-06-17T09:23:35.853Z,1022.9
2017-06-17T09:24:35.134Z,1022.9
2017-06-17T09:25:34.354Z,1023
2017-06-17T09:26:33.456Z,1022.9
2017-06-17T09:27:33.179Z,1022.9
2017-06-17T09:29:31.289Z,1023
2017-06-17T09:30:30.888Z,1023
2017-06-17T09:31:30.140Z,1023
2017-06-17T09:32:29.133Z,1022.9
2017-06-17T09:33:28.745Z,1022.9
2017-06-17T09:34:27.977Z,1023
2017-06-17T09:35:27.350Z,1023
2017-06-17T09:36:26.600Z,1022.9
2017-06-17T09:37:25.585Z,1022.9
2017-06-17T09:38:25.089Z,1022.9
2017-06-17T09:39:24.237Z,1022.9
2017-06-17T09:40:23.734Z,1023
2017-06-17T09:41:22.839Z,1023
2017-06-17T09:42:22.210Z,1023
2017-06-17T09:43:21.433Z,1023
2017-06-17T09:44:20.653Z,1023
2017-06-17T09:45:19.873Z,1023
2017-06-17T09:46:19.610Z,1023
2017-06-17T09:47:18.840Z,1023.1
2017-06-17T09:48:18.077Z,1023.1
2017-06-17T09:49:17.299Z,1023
2017-06-17T09:50:16.524Z,1023.1
2017-06-17T09:51:15.749Z,1023
2017-06-17T09:52:14.968Z,1023
2017-06-17T09:53:14.631Z,1023
2017-06-17T09:55:12.742Z,1023
2017-06-17T09:56:12.481Z,1023
2017-06-17T09:57:11.579Z,1023
2017-06-17T09:58:11.069Z,1023
2017-06-17T09:59:10.046Z,1023
2017-06-17T10:01:08.656Z,1023.1
2017-06-17T10:02:07.889Z,1023.1
2017-06-17T10:03:07.500Z,1023.1
2017-06-17T10:04:06.429Z,1023.1
2017-06-17T10:05:05.831Z,1023
2017-06-17T10:06:05.436Z,1023
2017-06-17T10:07:04.305Z,1022.9
2017-06-17T10:08:03.977Z,1023
2017-06-17T10:09:02.959Z,1023
2017-06-17T10:10:02.572Z,1022.9
2017-06-17T10:11:01.822Z,1023
2017-06-17T10:13:00.477Z,1022.9
2017-06-17T10:13:59.706Z,1022.8
2017-06-17T10:14:58.584Z,1022.9
2017-06-17T10:15:58.306Z,1022.9
2017-06-17T10:16:57.603Z,1022.9
2017-06-17T10:17:56.825Z,1022.9
2017-06-17T10:18:56.042Z,1023
2017-06-17T10:19:55.147Z,1022.8
2017-06-17T10:20:54.637Z,1022.9
2017-06-17T10:21:24.938Z,1022.9
2017-06-17T10:21:55.357Z,1023
2017-06-17T10:22:25.836Z,1023
2017-06-17T10:22:56.249Z,1023
2017-06-17T10:23:52.722Z,1023
2017-06-17T10:24:51.825Z,1022.9
2017-06-17T10:26:50.317Z,1022.9
2017-06-17T10:27:49.541Z,1022.9
2017-06-17T10:28:48.753Z,1022.8
2017-06-17T10:29:48.364Z,1022.8
2017-06-17T10:30:47.592Z,1022.8
2017-06-17T10:31:46.704Z,1022.6
2017-06-17T10:32:46.035Z,1022.8
2017-06-17T10:33:45.642Z,1022.8
2017-06-17T10:34:44.861Z,1022.8
2017-06-17T10:35:44.085Z,1022.7
2017-06-17T10:36:43.687Z,1022.9
2017-06-17T10:37:42.800Z,1022.8
2017-06-17T10:38:42.018Z,1022.8
2017-06-17T10:39:41.193Z,1022.8
2017-06-17T10:41:40.202Z,1022.8
2017-06-17T10:42:39.433Z,1022.7
2017-06-17T10:43:38.534Z,1022.8
2017-06-17T10:44:37.761Z,1022.8
2017-06-17T10:45:36.984Z,1022.8
2017-06-17T10:46:36.595Z,1022.8
2017-06-17T10:47:36.040Z,1022.8
2017-06-17T10:48:35.284Z,1022.8
2017-06-17T10:49:34.503Z,1022.8
2017-06-17T10:50:33.607Z,1022.8
2017-06-17T10:51:33.209Z,1022.8
2017-06-17T10:52:32.694Z,1022.8
2017-06-17T10:53:31.798Z,1022.8
2017-06-17T10:54:31.300Z,1022.7
2017-06-17T10:55:30.520Z,1022.8
2017-06-17T10:56:29.739Z,1022.7
2017-06-17T10:57:28.839Z,1022.8
2017-06-17T10:58:28.442Z,1022.8
2017-06-17T10:59:27.664Z,1022.8
2017-06-17T11:00:26.884Z,1022.8
2017-06-17T11:01:26.077Z,1022.9
2017-06-17T11:02:25.807Z,1022.9
2017-06-17T11:03:25.039Z,1022.9
2017-06-17T11:04:24.255Z,1023
2017-06-17T11:05:23.548Z,1022.9
2017-06-17T11:06:23.034Z,1023
2017-06-17T11:07:22.134Z,1023
2017-06-17T11:08:21.356Z,1023
2017-06-17T11:09:21.078Z,1023
2017-06-17T11:10:20.299Z,1023
2017-06-17T11:11:19.528Z,1023
2017-06-17T11:12:18.747Z,1023
2017-06-17T11:13:17.971Z,1023
2017-06-17T11:14:17.583Z,1022.9
2017-06-17T11:15:16.807Z,1023
2017-06-17T11:16:16.184Z,1023
2017-06-17T11:17:15.284Z,1023
2017-06-17T11:18:14.583Z,1022.9
2017-06-17T11:19:14.068Z,1022.9
2017-06-17T11:20:13.242Z,1022.9
2017-06-17T11:21:12.852Z,1022.9
2017-06-17T11:23:11.458Z,1022.9
2017-06-17T11:24:10.709Z,1022.8
2017-06-17T11:25:09.932Z,1022.9
2017-06-17T11:26:09.156Z,1022.9
2017-06-17T11:27:08.896Z,1022.8
2017-06-17T11:28:08.011Z,1022.8
2017-06-17T11:29:07.215Z,1022.8
2017-06-17T11:30:06.831Z,1022.8
2017-06-17T11:31:06.059Z,1022.8
2017-06-17T11:33:04.669Z,1022.8
2017-06-17T11:36:02.559Z,1022.9
2017-06-17T11:37:02.167Z,1022.9
2017-06-17T11:38:01.335Z,1022.9
2017-06-17T11:39:00.519Z,1022.9
2017-06-17T11:40:59.133Z,1022.8
2017-06-17T11:41:58.487Z,1022.9
2017-06-17T11:42:57.988Z,1022.9
2017-06-17T11:43:57.587Z,1022.9
2017-06-17T11:44:56.574Z,1022.9
2017-06-17T11:45:55.849Z,1022.9
2017-06-17T11:46:55.462Z,1022.9
2017-06-17T11:47:54.567Z,1022.9
2017-06-17T11:48:54.176Z,1022.9
2017-06-17T11:49:53.400Z,1022.8
2017-06-17T11:50:52.516Z,1022.8
2017-06-17T11:51:52.127Z,1022.8
2017-06-17T11:52:51.351Z,1022.8
2017-06-17T11:53:50.959Z,1022.9
2017-06-17T11:54:50.150Z,1022.9
2017-06-17T11:55:49.255Z,1022.9
2017-06-17T11:56:48.978Z,1022.7
2017-06-17T11:57:48.076Z,1022.7
2017-06-17T11:58:47.684Z,1022.8
2017-06-17T11:59:46.796Z,1022.7
2017-06-17T12:00:46.025Z,1022.7
2017-06-17T12:02:45.030Z,1022.9
2017-06-17T12:03:44.254Z,1022.8
2017-06-17T12:04:43.476Z,1022.8
2017-06-17T12:05:43.085Z,1022.8
2017-06-17T12:06:42.309Z,1022.9
2017-06-17T12:07:41.418Z,1022.8
2017-06-17T12:08:41.141Z,1022.8
2017-06-17T12:10:39.759Z,1022.7
2017-06-17T12:11:38.979Z,1022.8
2017-06-17T12:12:38.590Z,1022.8
2017-06-17T12:13:37.867Z,1022.8
2017-06-17T12:14:37.096Z,1022.8
2017-06-17T12:15:36.204Z,1022.8
2017-06-17T12:16:35.928Z,1022.7
2017-06-17T12:18:34.419Z,1022.9
2017-06-17T12:19:34.029Z,1022.8
2017-06-17T12:20:33.249Z,1022.9
2017-06-17T12:21:32.357Z,1022.9
2017-06-17T12:22:32.162Z,1022.9
2017-06-17T12:23:31.451Z,1022.9
2017-06-17T12:24:30.558Z,1022.9
2017-06-17T12:25:29.935Z,1022.9
2017-06-17T12:26:29.156Z,1022.9
2017-06-17T12:27:28.888Z,1022.8
2017-06-17T12:28:28.107Z,1022.8
2017-06-17T12:29:27.481Z,1022.9
2017-06-17T12:30:26.761Z,1022.9
2017-06-17T12:31:25.985Z,1022.9
2017-06-17T12:32:25.275Z,1023
2017-06-17T12:33:24.998Z,1022.9
2017-06-17T12:34:24.222Z,1022.8
2017-06-17T12:35:23.711Z,1022.9
2017-06-17T12:36:22.932Z,1022.8
2017-06-17T12:37:22.105Z,1022.8
2017-06-17T12:38:21.711Z,1022.8
2017-06-17T12:38:52.134Z,1022.8
2017-06-17T12:39:22.738Z,1022.8
2017-06-17T12:39:53.151Z,1022.8
2017-06-17T12:41:19.558Z,1022.9
2017-06-17T12:42:19.287Z,1022.9
2017-06-17T12:43:18.512Z,1022.9
2017-06-17T12:44:17.767Z,1023
2017-06-17T12:45:17.372Z,1022.8
2017-06-17T12:46:16.603Z,1022.8
2017-06-17T12:47:15.820Z,1022.9
2017-06-17T12:48:15.550Z,1022.9
2017-06-17T12:49:14.536Z,1022.9
2017-06-17T12:50:14.023Z,1022.9
2017-06-17T12:51:13.638Z,1022.9
2017-06-17T12:52:12.935Z,1022.8
2017-06-17T12:53:12.158Z,1022.9
2017-06-17T12:54:11.394Z,1022.7
2017-06-17T12:55:11.125Z,1022.8
2017-06-17T12:56:10.229Z,1022.9
2017-06-17T12:57:09.965Z,1022.9
2017-06-17T12:58:09.184Z,1022.9
2017-06-17T12:59:08.404Z,1022.9
2017-06-17T13:00:08.011Z,1022.9
2017-06-17T13:00:38.612Z,1022.9
2017-06-17T13:01:09.147Z,1022.9
2017-06-17T13:02:06.858Z,1022.9
2017-06-17T13:03:05.968Z,1022.8
2017-06-17T13:04:05.691Z,1022.8
2017-06-17T13:05:04.673Z,1022.8
2017-06-17T13:06:04.056Z,1022.9
2017-06-17T13:07:03.665Z,1022.9
2017-06-17T13:08:02.776Z,1022.9
2017-06-17T13:09:02.386Z,1022.8
2017-06-17T13:10:01.600Z,1022.8
2017-06-17T13:11:00.991Z,1022.8
2017-06-17T13:12:00.476Z,1022.9
2017-06-17T13:13:59.589Z,1022.9
2017-06-17T13:14:58.809Z,1022.9
2017-06-17T13:15:58.024Z,1022.8
2017-06-17T13:16:57.661Z,1022.8
2017-06-17T13:17:57.151Z,1022.9
2017-06-17T13:18:56.134Z,1022.9
2017-06-17T13:19:55.737Z,1022.8
2017-06-17T13:20:54.836Z,1022.9
2017-06-17T13:21:54.221Z,1022.9
2017-06-17T13:22:53.786Z,1022.9
2017-06-17T13:23:53.393Z,1022.8
2017-06-17T13:24:52.560Z,1022.9
2017-06-17T13:25:52.174Z,1023
2017-06-17T13:26:51.164Z,1022.9
2017-06-17T13:27:50.896Z,1022.8
2017-06-17T13:28:50.119Z,1022.9
2017-06-17T13:29:49.733Z,1022.8